Bentonville, Indiana
Current Conditions -  °F | °C
As of 11:31 PM on Monday 22 Dec 2014 (Local Time) from KGEZ Reporting Station
Overcast Overcast  
Wind Chill: 45°   Ceiling: 2300
Heat Index: 49°   Visibility: 10mi
Dew Point: 43°   Wind: 10mph
Humidity: 80%   Direction: 130°SE
Pressure: 29.67"   Gusts: NA
Location:  39.75°N, 85.19°W
Report Text: KGEZ 230431Z AUTO 13009KT 10SM BKN023 BKN038 OVC080 09/06 A2967 RMK AO2 RAE18 P0001 T00940061
Loading
Personal Weather Stations






























Interactive Weather Map New forecast layout! Learn more

10-Day Weather Forecast

Advertisements
Track Severe Weather on mobile